KSBN/SBN METAR and TAF weather

Enter ICAO airport designator
Station Type Date Time Source
KSBN METAR 2022/06/27 07:54 UTC NOAA

KSBN 270754Z AUTO 26003KT 10SM CLR 13/11 A3015 RMK AO2 SLP207 T01330111 $


Station Type Date Time Source
KSBN Decoded METAR 2022/06/27 07:54 UTC NOAA

SOUTH BEND REGIONAL AIRPORT, IN, United States (KSBN) 41-42N 086-19W 237M
Jun 27, 2022 - 03:54 AM EDT / 2022.06.27 0754 UTC
Wind: from the W (260 degrees) at 3 MPH (3 KT):0
Visibility: 10 mile(s):0
Sky conditions: clear
Temperature: 55.9 F (13.3 C)
Dew Point: 52.0 F (11.1 C)
Relative Humidity: 86%
Pressure (altimeter): 30.15 in. Hg (1020 hPa)
ob: KSBN 270754Z AUTO 26003KT 10SM CLR 13/11 A3015 RMK AO2 SLP207 T01330111
cycle: 8

Station Type Date Time Source
KSBN TAF 2022/06/27 06:54 UTC NOAA

TAF KSBN 270550Z 2706/2806 31007KT P6SM FEW250
FM271700 32012G19KT P6SM SKC
FM272200 33010KT P6SM SKC

Example: see airport list